createdAt,value
2023-05-14T00:01:33.738Z,35.30
2023-05-14T00:04:16.054Z,34.92
2023-05-14T00:06:58.988Z,35.15
2023-05-14T00:09:41.216Z,34.78
2023-05-14T00:12:24.856Z,41.90
2023-05-14T00:15:07.905Z,35.10
2023-05-14T00:17:50.576Z,34.05
2023-05-14T00:20:32.810Z,33.15
2023-05-14T00:23:15.554Z,32.20
2023-05-14T00:25:57.681Z,36.05
2023-05-14T00:28:40.099Z,33.63
2023-05-14T00:31:22.296Z,34.13
2023-05-14T00:34:04.810Z,33.95
2023-05-14T00:36:47.340Z,32.33
2023-05-14T00:39:29.844Z,30.13
2023-05-14T00:42:12.007Z,35.65
2023-05-14T00:44:54.563Z,31.15
2023-05-14T00:47:39.310Z,29.17
2023-05-14T00:50:22.517Z,32.45
2023-05-14T00:53:10.203Z,34.38
2023-05-14T00:55:53.188Z,35.50
2023-05-14T00:58:35.421Z,34.00
2023-05-14T01:01:18.749Z,34.08
2023-05-14T01:04:01.489Z,33.75
2023-05-14T01:07:06.106Z,33.22
2023-05-14T01:10:13.729Z,31.73
2023-05-14T01:13:21.023Z,33.22
2023-05-14T01:16:04.276Z,33.13
2023-05-14T01:18:48.372Z,33.30
2023-05-14T01:21:38.926Z,30.50
2023-05-14T01:24:21.888Z,36.15
2023-05-14T01:27:26.592Z,38.60
2023-05-14T01:30:15.216Z,32.63
2023-05-14T01:33:00.671Z,33.17
2023-05-14T01:35:44.357Z,32.70
2023-05-14T01:38:30.834Z,27.80
2023-05-14T01:41:14.544Z,29.35
2023-05-14T01:43:57.284Z,32.50
2023-05-14T01:46:39.933Z,34.97
2023-05-14T01:49:22.764Z,36.40
2023-05-14T01:52:05.729Z,41.80
2023-05-14T01:54:50.789Z,40.83
2023-05-14T01:57:33.363Z,35.67
2023-05-14T02:00:15.881Z,37.08
2023-05-14T02:02:58.305Z,31.48
2023-05-14T02:05:40.504Z,33.97
2023-05-14T02:08:23.424Z,34.85
2023-05-14T02:11:05.824Z,39.40
2023-05-14T02:13:48.383Z,35.53
2023-05-14T02:16:30.635Z,29.00
2023-05-14T02:19:15.423Z,31.00
2023-05-14T02:21:59.574Z,27.85
2023-05-14T02:24:42.969Z,32.47
2023-05-14T02:27:25.137Z,33.75
2023-05-14T02:30:09.050Z,36.10
2023-05-14T02:32:51.891Z,34.50
2023-05-14T02:35:34.441Z,31.70
2023-05-14T02:38:16.694Z,33.70
2023-05-14T02:40:59.382Z,30.75
2023-05-14T02:43:41.632Z,31.02
2023-05-14T02:46:24.242Z,34.75
2023-05-14T02:49:06.435Z,29.52
2023-05-14T02:51:48.952Z,31.88
2023-05-14T02:54:31.254Z,31.38
2023-05-14T02:57:13.873Z,35.00
2023-05-14T02:59:56.103Z,32.50
2023-05-14T03:02:39.183Z,33.08
2023-05-14T03:05:22.180Z,31.60
2023-05-14T03:08:04.910Z,31.45
2023-05-14T03:10:47.122Z,28.67
2023-05-14T03:13:30.125Z,31.20
2023-05-14T03:16:12.825Z,30.95
2023-05-14T03:18:55.365Z,31.15
2023-05-14T03:21:37.769Z,32.90
2023-05-14T03:24:20.312Z,40.45
2023-05-14T03:27:02.475Z,91.03
2023-05-14T03:29:45.017Z,49.63
2023-05-14T03:32:27.296Z,46.88
2023-05-14T03:35:10.057Z,40.78
2023-05-14T03:37:53.110Z,37.53
2023-05-14T03:40:35.579Z,33.28
2023-05-14T03:43:17.765Z,33.05
2023-05-14T03:46:00.320Z,35.78
2023-05-14T03:48:42.839Z,29.23
2023-05-14T03:51:25.476Z,30.33
2023-05-14T03:54:07.981Z,30.27
2023-05-14T03:56:50.520Z,30.80
2023-05-14T03:59:32.839Z,29.58
2023-05-14T04:02:15.663Z,30.55
2023-05-14T04:04:57.827Z,30.95
2023-05-14T04:07:40.677Z,30.55
2023-05-14T04:10:23.011Z,28.05
2023-05-14T04:13:06.006Z,31.15
2023-05-14T04:15:50.504Z,27.70
2023-05-14T04:18:35.595Z,30.67
2023-05-14T04:21:17.875Z,28.42
2023-05-14T04:24:00.386Z,31.27
2023-05-14T04:26:42.558Z,28.02
2023-05-14T04:29:25.034Z,27.80
2023-05-14T04:32:07.800Z,23.13
2023-05-14T04:34:50.437Z,27.45
2023-05-14T04:37:33.088Z,27.88
2023-05-14T04:40:16.854Z,27.60
2023-05-14T04:42:58.991Z,31.13
2023-05-14T04:45:41.469Z,26.98
2023-05-14T04:48:23.600Z,27.73
2023-05-14T04:51:07.216Z,25.88
2023-05-14T04:53:49.527Z,29.67
2023-05-14T04:56:32.043Z,27.88
2023-05-14T04:59:14.181Z,26.15
2023-05-14T05:01:57.012Z,27.92
2023-05-14T05:04:39.407Z,29.83
2023-05-14T05:07:21.846Z,28.13
2023-05-14T05:10:04.411Z,24.35
2023-05-14T05:12:46.932Z,31.40
2023-05-14T05:15:29.880Z,27.23
2023-05-14T05:18:12.493Z,27.73
2023-05-14T05:20:54.656Z,25.42
2023-05-14T05:23:37.187Z,27.80
2023-05-14T05:26:19.342Z,24.67
2023-05-14T05:29:01.990Z,26.27
2023-05-14T05:31:44.268Z,25.80
2023-05-14T05:34:27.030Z,20.33
2023-05-14T05:37:12.721Z,18.90
2023-05-14T05:39:55.804Z,17.98
2023-05-14T05:42:38.199Z,23.23
2023-05-14T05:45:20.671Z,21.08
2023-05-14T05:48:03.052Z,17.63
2023-05-14T05:50:49.222Z,18.38
2023-05-14T05:53:31.307Z,16.13
2023-05-14T05:56:13.756Z,18.40
2023-05-14T05:58:56.275Z,17.70
2023-05-14T06:01:40.771Z,17.42
2023-05-14T06:04:23.811Z,17.33
2023-05-14T06:07:06.377Z,14.98
2023-05-14T06:09:49.128Z,15.23
2023-05-14T06:12:31.598Z,14.43
2023-05-14T06:15:14.632Z,17.40
2023-05-14T06:17:57.712Z,10.68
2023-05-14T06:20:41.469Z,12.70
2023-05-14T06:23:24.216Z,10.90
2023-05-14T06:26:07.019Z,11.15
2023-05-14T06:28:49.864Z,11.55
2023-05-14T06:31:32.294Z,11.23
2023-05-14T06:34:15.372Z,12.10
2023-05-14T06:36:57.948Z,11.38
2023-05-14T06:39:40.633Z,11.18
2023-05-14T06:42:22.896Z,9.73
2023-05-14T06:45:06.447Z,11.15
2023-05-14T06:47:49.056Z,10.73
2023-05-14T06:50:31.561Z,10.85
2023-05-14T06:53:14.425Z,12.95
2023-05-14T06:55:57.083Z,10.38
2023-05-14T06:58:39.321Z,10.80
2023-05-14T07:01:21.910Z,9.48
2023-05-14T07:04:04.329Z,9.75
2023-05-14T07:06:47.045Z,7.60
2023-05-14T07:09:29.297Z,6.07
2023-05-14T07:12:11.772Z,8.02
2023-05-14T07:14:54.051Z,7.22
2023-05-14T07:17:37.818Z,7.75
2023-05-14T07:20:20.222Z,7.18
2023-05-14T07:23:02.813Z,15.38
2023-05-14T07:25:45.158Z,7.65
2023-05-14T07:28:27.795Z,6.38
2023-05-14T07:31:10.161Z,9.30
2023-05-14T07:33:52.771Z,6.85
2023-05-14T07:36:35.056Z,10.40
2023-05-14T07:39:17.665Z,4.97
2023-05-14T07:42:01.079Z,8.48
2023-05-14T07:44:43.826Z,7.90
2023-05-14T07:47:26.110Z,5.63
2023-05-14T07:50:09.607Z,7.45
2023-05-14T07:52:51.977Z,10.23
2023-05-14T07:55:34.601Z,10.10
2023-05-14T07:58:16.789Z,10.27
2023-05-14T08:01:01.408Z,8.60
2023-05-14T08:03:44.713Z,13.50
2023-05-14T08:06:28.584Z,11.65
2023-05-14T08:09:11.157Z,8.40
2023-05-14T08:11:53.862Z,14.20
2023-05-14T08:14:36.222Z,7.45
2023-05-14T08:17:18.889Z,8.80
2023-05-14T08:20:01.620Z,11.07
2023-05-14T08:22:44.195Z,8.70
2023-05-14T08:25:26.360Z,6.72
2023-05-14T08:28:08.958Z,7.53
2023-05-14T08:30:51.662Z,8.10
2023-05-14T08:33:34.288Z,10.55
2023-05-14T08:36:16.513Z,8.05
2023-05-14T08:38:59.068Z,8.48
2023-05-14T08:41:41.415Z,7.18
2023-05-14T08:44:37.505Z,7.55
2023-05-14T08:47:22.274Z,8.05
2023-05-14T08:50:07.467Z,6.33
2023-05-14T08:52:49.772Z,12.00
2023-05-14T08:55:34.207Z,6.53
2023-05-14T08:58:16.928Z,4.55
2023-05-14T09:00:59.695Z,6.38
2023-05-14T09:03:42.641Z,3.40
2023-05-14T09:06:26.238Z,3.58
2023-05-14T09:09:10.163Z,5.82
2023-05-14T09:11:53.779Z,5.05
2023-05-14T09:14:35.987Z,5.50
2023-05-14T09:17:19.581Z,7.00
2023-05-14T09:20:01.991Z,6.32
2023-05-14T09:22:44.556Z,3.38
2023-05-14T09:25:28.548Z,5.20
2023-05-14T09:28:11.121Z,3.90
2023-05-14T09:30:53.356Z,5.50
2023-05-14T09:33:36.966Z,5.97
2023-05-14T09:36:20.132Z,10.27
2023-05-14T09:39:06.270Z,3.63
2023-05-14T09:44:32.020Z,2.83
2023-05-14T09:47:15.730Z,4.00
2023-05-14T09:49:58.484Z,3.83
2023-05-14T09:52:40.775Z,3.88
2023-05-14T09:55:23.442Z,4.03
2023-05-14T09:58:06.156Z,2.42
2023-05-14T10:00:49.295Z,3.60
2023-05-14T10:03:32.623Z,2.92
2023-05-14T10:06:19.189Z,2.70
2023-05-14T10:09:04.119Z,2.42
2023-05-14T10:11:52.851Z,6.10
2023-05-14T10:14:43.145Z,2.20
2023-05-14T10:17:29.781Z,2.40
2023-05-14T10:20:16.692Z,2.83
2023-05-14T10:22:59.430Z,6.43
2023-05-14T10:25:42.404Z,4.05
2023-05-14T10:28:25.445Z,2.90
2023-05-14T10:31:10.191Z,3.03
2023-05-14T10:33:54.444Z,2.87
2023-05-14T10:36:36.738Z,3.70
2023-05-14T10:39:19.249Z,3.72
2023-05-14T10:42:01.451Z,3.42
2023-05-14T10:44:58.206Z,5.28
2023-05-14T10:47:43.512Z,5.20
2023-05-14T10:50:27.366Z,3.05
2023-05-14T10:53:13.524Z,4.18
2023-05-14T10:55:56.478Z,3.42
2023-05-14T10:58:40.780Z,5.57
2023-05-14T11:01:24.474Z,3.05
2023-05-14T11:04:07.005Z,1.90
2023-05-14T11:06:51.897Z,6.18
2023-05-14T11:09:34.668Z,4.43
2023-05-14T11:12:19.672Z,7.00
2023-05-14T11:15:09.405Z,2.90
2023-05-14T11:17:53.626Z,3.45
2023-05-14T11:20:36.316Z,1.77
2023-05-14T11:23:18.767Z,2.58
2023-05-14T11:26:01.190Z,2.35
2023-05-14T11:28:44.955Z,3.08
2023-05-14T11:31:28.416Z,7.05
2023-05-14T11:34:12.415Z,5.18
2023-05-14T11:36:54.703Z,3.10
2023-05-14T11:39:37.744Z,1.33
2023-05-14T11:42:21.479Z,6.78
2023-05-14T11:45:07.082Z,2.70
2023-05-14T11:47:49.442Z,3.10
2023-05-14T11:50:36.652Z,2.58
2023-05-14T11:53:26.951Z,6.82
2023-05-14T11:56:09.896Z,6.82
2023-05-14T11:58:58.745Z,4.20
2023-05-14T12:01:41.472Z,1.48
2023-05-14T12:04:24.366Z,3.15
2023-05-14T12:07:12.944Z,1.75
2023-05-14T12:09:55.154Z,1.75
2023-05-14T12:12:39.171Z,3.85
2023-05-14T12:15:22.334Z,1.17
2023-05-14T12:18:22.909Z,4.10
2023-05-14T12:21:08.640Z,1.17
2023-05-14T12:23:59.213Z,2.90
2023-05-14T12:26:49.893Z,3.30
2023-05-14T12:29:37.630Z,5.65
2023-05-14T12:32:20.388Z,1.65
2023-05-14T12:35:03.535Z,3.60
2023-05-14T12:37:46.079Z,2.20
2023-05-14T12:40:29.105Z,1.10
2023-05-14T12:43:11.587Z,1.58
2023-05-14T12:45:54.332Z,1.42
2023-05-14T12:48:36.570Z,1.50
2023-05-14T12:51:19.282Z,2.28
2023-05-14T12:54:01.863Z,4.53
2023-05-14T12:56:44.574Z,2.88
2023-05-14T12:59:27.006Z,2.58
2023-05-14T13:02:09.773Z,1.23
2023-05-14T13:04:53.039Z,2.05
2023-05-14T13:07:36.164Z,1.80
2023-05-14T13:10:19.857Z,1.35
2023-05-14T13:13:04.737Z,2.35
2023-05-14T13:15:49.524Z,3.65
2023-05-14T13:18:32.269Z,11.45
2023-05-14T13:21:14.534Z,0.98
2023-05-14T13:23:57.198Z,2.33
2023-05-14T13:26:39.431Z,1.20
2023-05-14T13:29:22.024Z,0.90
2023-05-14T13:32:04.946Z,1.10
2023-05-14T13:34:47.785Z,2.80
2023-05-14T13:37:30.030Z,1.35
2023-05-14T13:40:12.948Z,2.83
2023-05-14T13:42:55.129Z,3.75
2023-05-14T13:45:37.575Z,5.30
2023-05-14T13:48:19.740Z,3.17
2023-05-14T13:51:02.213Z,2.63
2023-05-14T13:53:44.814Z,1.73
2023-05-14T13:56:27.273Z,2.58
2023-05-14T13:59:09.546Z,3.13
2023-05-14T14:01:52.101Z,1.00
2023-05-14T14:04:34.716Z,1.60
2023-05-14T14:07:17.304Z,2.85
2023-05-14T14:10:01.650Z,1.73
2023-05-14T14:12:44.382Z,4.22
2023-05-14T14:15:26.843Z,2.58
2023-05-14T14:18:09.426Z,1.92
2023-05-14T14:20:51.777Z,2.72
2023-05-14T14:23:34.354Z,2.35
2023-05-14T14:26:16.677Z,2.13
2023-05-14T14:28:59.386Z,2.85
2023-05-14T14:31:42.671Z,2.45
2023-05-14T14:34:25.645Z,4.50
2023-05-14T14:37:07.914Z,2.72
2023-05-14T14:39:50.801Z,2.08
2023-05-14T14:42:34.940Z,3.75
2023-05-14T14:45:17.784Z,2.00
2023-05-14T14:48:22.296Z,3.83
2023-05-14T14:51:06.372Z,3.58
2023-05-14T14:53:48.553Z,1.30
2023-05-14T14:56:31.611Z,2.83
2023-05-14T14:59:13.863Z,2.55
2023-05-14T15:01:56.592Z,2.08
2023-05-14T15:04:39.014Z,2.45
2023-05-14T15:07:22.277Z,2.33
2023-05-14T15:10:05.176Z,4.22
2023-05-14T15:12:48.379Z,1.80
2023-05-14T15:15:31.871Z,3.60
2023-05-14T15:18:14.677Z,2.72
2023-05-14T15:20:57.147Z,3.53
2023-05-14T15:23:39.744Z,2.72
2023-05-14T15:26:23.882Z,3.63
2023-05-14T15:29:06.372Z,1.85
2023-05-14T15:31:48.576Z,1.70
2023-05-14T15:34:31.242Z,1.33
2023-05-14T15:37:13.575Z,4.07
2023-05-14T15:39:56.146Z,2.42
2023-05-14T15:42:40.018Z,3.00
2023-05-14T15:45:23.420Z,2.95
2023-05-14T15:48:06.075Z,4.80
2023-05-14T15:50:49.804Z,4.88
2023-05-14T15:53:32.284Z,7.80
2023-05-14T15:56:14.956Z,3.05
2023-05-14T15:58:57.407Z,3.95
2023-05-14T16:01:40.460Z,2.92
2023-05-14T16:04:22.939Z,3.58
2023-05-14T16:07:09.892Z,2.25
2023-05-14T16:09:52.247Z,3.53
2023-05-14T16:12:35.045Z,3.30
2023-05-14T16:15:17.422Z,1.50
2023-05-14T16:18:00.893Z,3.35
2023-05-14T16:20:43.339Z,2.42
2023-05-14T16:23:26.160Z,2.38
2023-05-14T16:26:08.500Z,4.53
2023-05-14T16:28:51.136Z,1.98
2023-05-14T16:31:34.592Z,2.83
2023-05-14T16:34:17.166Z,3.10
2023-05-14T16:36:59.901Z,6.00
2023-05-14T16:39:43.480Z,3.38
2023-05-14T16:42:26.350Z,6.30
2023-05-14T16:45:09.551Z,6.28
2023-05-14T16:47:51.820Z,3.72
2023-05-14T16:50:34.509Z,6.75
2023-05-14T16:53:17.085Z,5.40
2023-05-14T16:55:59.678Z,4.80
2023-05-14T16:58:42.345Z,5.30
2023-05-14T17:01:25.079Z,5.05
2023-05-14T17:04:08.269Z,5.97
2023-05-14T17:06:51.566Z,7.10
2023-05-14T17:09:34.063Z,4.28
2023-05-14T17:12:17.793Z,3.60
2023-05-14T17:15:02.988Z,8.15
2023-05-14T17:17:47.340Z,3.70
2023-05-14T17:20:30.845Z,2.97
2023-05-14T17:23:13.593Z,4.13
2023-05-14T17:25:58.640Z,4.38
2023-05-14T17:28:40.965Z,8.50
2023-05-14T17:31:24.127Z,4.55
2023-05-14T17:34:07.266Z,5.53
2023-05-14T17:36:49.887Z,5.28
2023-05-14T17:39:33.120Z,3.80
2023-05-14T17:42:16.266Z,2.75
2023-05-14T17:44:59.090Z,9.95
2023-05-14T17:47:41.648Z,6.68
2023-05-14T17:50:23.886Z,7.18
2023-05-14T17:53:06.932Z,5.88
2023-05-14T17:55:50.254Z,7.07
2023-05-14T17:58:32.890Z,5.45
2023-05-14T18:01:15.470Z,9.27
2023-05-14T18:03:58.276Z,6.72
2023-05-14T18:06:41.263Z,8.07
2023-05-14T18:09:23.807Z,9.07
2023-05-14T18:12:06.851Z,8.10
2023-05-14T18:14:49.626Z,12.70
2023-05-14T18:17:32.145Z,13.35
2023-05-14T18:20:14.847Z,13.38
2023-05-14T18:22:57.036Z,22.50
2023-05-14T18:25:39.600Z,12.82
2023-05-14T18:28:22.096Z,12.00
2023-05-14T18:31:04.614Z,13.60
2023-05-14T18:33:47.528Z,11.77
2023-05-14T18:36:30.464Z,14.35
2023-05-14T18:39:13.625Z,18.98
2023-05-14T18:41:56.733Z,14.43
2023-05-14T18:44:43.061Z,15.43
2023-05-14T18:47:25.760Z,17.73
2023-05-14T18:50:08.785Z,12.38
2023-05-14T18:52:51.589Z,13.52
2023-05-14T18:55:35.370Z,11.50
2023-05-14T18:58:18.016Z,11.00
2023-05-14T19:01:00.354Z,12.93
2023-05-14T19:03:43.129Z,11.15
2023-05-14T19:06:25.883Z,12.05
2023-05-14T19:09:09.521Z,16.92
2023-05-14T19:11:51.888Z,9.52
2023-05-14T19:14:34.543Z,15.60
2023-05-14T19:17:18.434Z,17.50
2023-05-14T19:20:02.470Z,18.27
2023-05-14T19:22:44.972Z,22.23
2023-05-14T19:25:29.334Z,17.00
2023-05-14T19:28:11.910Z,21.02
2023-05-14T19:30:55.150Z,17.40
2023-05-14T19:33:37.809Z,21.33
2023-05-14T19:36:21.878Z,19.65
2023-05-14T19:39:04.588Z,21.90
2023-05-14T19:41:47.233Z,19.33
2023-05-14T19:44:30.929Z,20.02
2023-05-14T19:47:13.643Z,23.40
2023-05-14T19:49:56.066Z,24.27
2023-05-14T19:52:38.898Z,22.17
2023-05-14T19:55:22.583Z,16.23
2023-05-14T19:58:05.648Z,15.27
2023-05-14T20:00:51.120Z,15.95
2023-05-14T20:03:33.827Z,10.23
2023-05-14T20:06:17.542Z,10.38
2023-05-14T20:09:03.054Z,17.10
2023-05-14T20:11:45.301Z,10.13
2023-05-14T20:14:27.808Z,9.18
2023-05-14T20:17:10.200Z,10.18
2023-05-14T20:19:52.738Z,8.35
2023-05-14T20:22:35.235Z,10.98
2023-05-14T20:25:17.697Z,8.93
2023-05-14T20:28:02.557Z,12.05
2023-05-14T20:30:45.095Z,8.70
2023-05-14T20:33:29.230Z,7.35
2023-05-14T20:36:11.865Z,7.93
2023-05-14T20:38:54.082Z,10.55
2023-05-14T20:41:38.088Z,9.13
2023-05-14T20:44:20.767Z,7.97
2023-05-14T20:47:03.507Z,9.40
2023-05-14T20:49:46.686Z,8.32
2023-05-14T20:52:29.374Z,9.88
2023-05-14T20:55:13.055Z,8.07
2023-05-14T20:57:55.908Z,9.70
2023-05-14T21:00:39.254Z,11.40
2023-05-14T21:03:21.863Z,10.35
2023-05-14T21:06:04.359Z,11.68
2023-05-14T21:08:46.781Z,18.05
2023-05-14T21:11:29.085Z,11.40
2023-05-14T21:14:11.660Z,12.52
2023-05-14T21:16:54.038Z,9.80
2023-05-14T21:19:36.511Z,10.82
2023-05-14T21:22:18.730Z,11.05
2023-05-14T21:25:01.178Z,10.13
2023-05-14T21:27:43.408Z,11.13
2023-05-14T21:30:25.861Z,10.57
2023-05-14T21:33:08.928Z,14.90
2023-05-14T21:35:51.507Z,7.97
2023-05-14T21:38:34.071Z,9.23
2023-05-14T21:41:16.762Z,9.75
2023-05-14T21:43:58.980Z,7.93
2023-05-14T21:46:41.667Z,8.98
2023-05-14T21:49:23.854Z,7.60
2023-05-14T21:52:06.539Z,8.70
2023-05-14T21:54:48.734Z,8.77
2023-05-14T21:57:34.293Z,7.03
2023-05-14T22:03:05.925Z,6.72
2023-05-14T22:05:49.273Z,9.23
2023-05-14T22:08:32.260Z,9.13
2023-05-14T22:11:14.508Z,6.70
2023-05-14T22:13:56.970Z,9.52
2023-05-14T22:16:39.221Z,8.27
2023-05-14T22:19:22.419Z,5.35
2023-05-14T22:22:04.827Z,4.57
2023-05-14T22:24:47.306Z,6.78
2023-05-14T22:27:30.482Z,8.80
2023-05-14T22:30:13.032Z,8.23
2023-05-14T22:32:55.374Z,6.10
2023-05-14T22:35:37.888Z,4.32
2023-05-14T22:38:20.426Z,7.20
2023-05-14T22:41:02.845Z,5.45
2023-05-14T22:43:45.068Z,8.02
2023-05-14T22:46:28.321Z,8.73
2023-05-14T22:49:10.698Z,4.60
2023-05-14T22:51:54.314Z,7.32
2023-05-14T22:54:36.692Z,5.55
2023-05-14T22:57:19.228Z,6.72
2023-05-14T23:00:01.463Z,9.90
2023-05-14T23:02:43.971Z,12.07
2023-05-14T23:05:26.658Z,8.20
2023-05-14T23:08:09.513Z,5.50
2023-05-14T23:10:52.524Z,5.85
2023-05-14T23:13:35.160Z,5.20
2023-05-14T23:16:17.537Z,6.43
2023-05-14T23:19:00.039Z,5.15
2023-05-14T23:21:42.371Z,6.90
2023-05-14T23:24:24.907Z,5.32
2023-05-14T23:27:07.356Z,7.55
2023-05-14T23:29:49.739Z,4.20
2023-05-14T23:32:31.950Z,4.85
2023-05-14T23:35:14.432Z,6.60
2023-05-14T23:37:56.758Z,6.57
2023-05-14T23:40:39.320Z,7.47
2023-05-14T23:43:21.580Z,7.05
2023-05-14T23:46:04.265Z,4.35
2023-05-14T23:48:46.416Z,5.82
2023-05-14T23:51:28.856Z,7.35
2023-05-14T23:54:11.826Z,6.18
2023-05-14T23:56:54.231Z,5.15
2023-05-14T23:59:36.469Z,7.50
